sensor_id;sensor_type;location;lat;lon;timestamp;P1;durP1;ratioP1;P2;durP2;ratioP2
33104;SDS011;19476;51.448;6.674;2022-08-21T00:01:30;3.70;;;1.48;;
33104;SDS011;19476;51.448;6.674;2022-08-21T00:03:56;2.38;;;1.20;;
33104;SDS011;19476;51.448;6.674;2022-08-21T00:06:22;4.95;;;1.73;;
33104;SDS011;19476;51.448;6.674;2022-08-21T00:08:49;4.07;;;1.55;;
33104;SDS011;19476;51.448;6.674;2022-08-21T00:11:17;4.93;;;1.60;;
33104;SDS011;19476;51.448;6.674;2022-08-21T00:13:42;3.40;;;1.55;;
33104;SDS011;19476;51.448;6.674;2022-08-21T00:16:08;2.33;;;1.00;;
33104;SDS011;19476;51.448;6.674;2022-08-21T00:18:36;4.78;;;1.75;;
33104;SDS011;19476;51.448;6.674;2022-08-21T00:21:02;4.43;;;1.50;;
33104;SDS011;19476;51.448;6.674;2022-08-21T00:23:28;3.97;;;1.60;;
33104;SDS011;19476;51.448;6.674;2022-08-21T00:25:55;2.63;;;1.40;;
33104;SDS011;19476;51.448;6.674;2022-08-21T00:28:21;4.60;;;1.75;;
33104;SDS011;19476;51.448;6.674;2022-08-21T00:30:47;3.50;;;1.65;;
33104;SDS011;19476;51.448;6.674;2022-08-21T00:33:12;2.28;;;1.40;;
33104;SDS011;19476;51.448;6.674;2022-08-21T00:35:39;3.30;;;1.80;;
33104;SDS011;19476;51.448;6.674;2022-08-21T00:38:08;3.90;;;1.65;;
33104;SDS011;19476;51.448;6.674;2022-08-21T00:40:45;1.88;;;1.10;;
33104;SDS011;19476;51.448;6.674;2022-08-21T00:43:18;3.53;;;1.48;;
33104;SDS011;19476;51.448;6.674;2022-08-21T00:45:47;4.75;;;1.67;;
33104;SDS011;19476;51.448;6.674;2022-08-21T00:48:13;4.05;;;1.58;;
33104;SDS011;19476;51.448;6.674;2022-08-21T00:50:42;3.88;;;1.60;;
33104;SDS011;19476;51.448;6.674;2022-08-21T00:53:11;3.33;;;1.33;;
33104;SDS011;19476;51.448;6.674;2022-08-21T00:55:38;3.50;;;1.58;;
33104;SDS011;19476;51.448;6.674;2022-08-21T00:58:05;2.65;;;1.70;;
33104;SDS011;19476;51.448;6.674;2022-08-21T01:00:36;3.47;;;1.70;;
33104;SDS011;19476;51.448;6.674;2022-08-21T01:03:09;3.42;;;1.73;;
33104;SDS011;19476;51.448;6.674;2022-08-21T01:05:36;3.58;;;1.50;;
33104;SDS011;19476;51.448;6.674;2022-08-21T01:08:03;3.22;;;1.67;;
33104;SDS011;19476;51.448;6.674;2022-08-21T01:10:30;3.80;;;1.67;;
33104;SDS011;19476;51.448;6.674;2022-08-21T01:12:57;3.08;;;1.38;;
33104;SDS011;19476;51.448;6.674;2022-08-21T01:15:24;4.35;;;1.75;;
33104;SDS011;19476;51.448;6.674;2022-08-21T01:17:56;2.53;;;1.35;;
33104;SDS011;19476;51.448;6.674;2022-08-21T01:20:23;2.25;;;1.25;;
33104;SDS011;19476;51.448;6.674;2022-08-21T01:22:49;5.50;;;1.35;;
33104;SDS011;19476;51.448;6.674;2022-08-21T01:25:15;4.28;;;1.73;;
33104;SDS011;19476;51.448;6.674;2022-08-21T01:27:45;2.97;;;1.70;;
33104;SDS011;19476;51.448;6.674;2022-08-21T01:30:13;2.65;;;1.33;;
33104;SDS011;19476;51.448;6.674;2022-08-21T01:32:45;4.18;;;1.85;;
33104;SDS011;19476;51.448;6.674;2022-08-21T01:35:13;3.92;;;1.60;;
33104;SDS011;19476;51.448;6.674;2022-08-21T01:37:41;3.45;;;1.58;;
33104;SDS011;19476;51.448;6.674;2022-08-21T01:40:08;4.38;;;2.05;;
33104;SDS011;19476;51.448;6.674;2022-08-21T01:42:35;4.35;;;1.85;;
33104;SDS011;19476;51.448;6.674;2022-08-21T01:45:03;4.63;;;1.85;;
33104;SDS011;19476;51.448;6.674;2022-08-21T01:47:30;2.67;;;1.58;;
33104;SDS011;19476;51.448;6.674;2022-08-21T01:49:56;2.10;;;1.38;;
33104;SDS011;19476;51.448;6.674;2022-08-21T01:52:21;5.65;;;1.85;;
33104;SDS011;19476;51.448;6.674;2022-08-21T01:54:48;3.08;;;1.67;;
33104;SDS011;19476;51.448;6.674;2022-08-21T01:57:14;4.55;;;1.60;;
33104;SDS011;19476;51.448;6.674;2022-08-21T01:59:40;4.30;;;1.52;;
33104;SDS011;19476;51.448;6.674;2022-08-21T02:02:06;2.58;;;1.40;;
33104;SDS011;19476;51.448;6.674;2022-08-21T02:04:32;3.80;;;1.73;;
33104;SDS011;19476;51.448;6.674;2022-08-21T02:06:59;2.80;;;1.25;;
33104;SDS011;19476;51.448;6.674;2022-08-21T02:09:25;2.65;;;1.23;;
33104;SDS011;19476;51.448;6.674;2022-08-21T02:11:51;5.53;;;1.63;;
33104;SDS011;19476;51.448;6.674;2022-08-21T02:14:17;4.22;;;1.55;;
33104;SDS011;19476;51.448;6.674;2022-08-21T02:16:44;4.53;;;1.98;;
33104;SDS011;19476;51.448;6.674;2022-08-21T02:19:11;4.00;;;1.75;;
33104;SDS011;19476;51.448;6.674;2022-08-21T02:21:39;4.00;;;1.80;;
33104;SDS011;19476;51.448;6.674;2022-08-21T02:24:05;2.92;;;1.65;;
33104;SDS011;19476;51.448;6.674;2022-08-21T02:26:31;3.10;;;1.70;;
33104;SDS011;19476;51.448;6.674;2022-08-21T02:28:57;4.78;;;2.15;;
33104;SDS011;19476;51.448;6.674;2022-08-21T02:31:23;4.95;;;1.80;;
33104;SDS011;19476;51.448;6.674;2022-08-21T02:33:50;3.85;;;1.92;;
33104;SDS011;19476;51.448;6.674;2022-08-21T02:36:16;3.63;;;1.80;;
33104;SDS011;19476;51.448;6.674;2022-08-21T02:38:42;3.80;;;1.70;;
33104;SDS011;19476;51.448;6.674;2022-08-21T02:41:13;3.50;;;1.73;;
33104;SDS011;19476;51.448;6.674;2022-08-21T02:43:40;3.92;;;1.95;;
33104;SDS011;19476;51.448;6.674;2022-08-21T02:46:07;4.60;;;1.85;;
33104;SDS011;19476;51.448;6.674;2022-08-21T02:48:35;3.53;;;1.88;;
33104;SDS011;19476;51.448;6.674;2022-08-21T02:51:07;3.10;;;1.70;;
33104;SDS011;19476;51.448;6.674;2022-08-21T02:53:35;3.75;;;1.83;;
33104;SDS011;19476;51.448;6.674;2022-08-21T02:56:03;4.32;;;2.00;;
33104;SDS011;19476;51.448;6.674;2022-08-21T02:58:33;4.00;;;1.85;;
33104;SDS011;19476;51.448;6.674;2022-08-21T03:01:02;4.07;;;2.10;;
33104;SDS011;19476;51.448;6.674;2022-08-21T03:03:29;4.07;;;1.92;;
33104;SDS011;19476;51.448;6.674;2022-08-21T03:05:55;2.25;;;1.40;;
33104;SDS011;19476;51.448;6.674;2022-08-21T03:08:22;4.00;;;2.22;;
33104;SDS011;19476;51.448;6.674;2022-08-21T03:10:49;3.10;;;1.80;;
33104;SDS011;19476;51.448;6.674;2022-08-21T03:13:16;3.85;;;2.10;;
33104;SDS011;19476;51.448;6.674;2022-08-21T03:15:44;3.30;;;1.67;;
33104;SDS011;19476;51.448;6.674;2022-08-21T03:18:10;4.50;;;1.98;;
33104;SDS011;19476;51.448;6.674;2022-08-21T03:20:37;3.55;;;1.70;;
33104;SDS011;19476;51.448;6.674;2022-08-21T03:23:04;4.15;;;2.25;;
33104;SDS011;19476;51.448;6.674;2022-08-21T03:25:31;4.82;;;1.77;;
33104;SDS011;19476;51.448;6.674;2022-08-21T03:27:58;4.82;;;2.20;;
33104;SDS011;19476;51.448;6.674;2022-08-21T03:30:24;5.30;;;2.13;;
33104;SDS011;19476;51.448;6.674;2022-08-21T03:32:50;4.00;;;2.03;;
33104;SDS011;19476;51.448;6.674;2022-08-21T03:35:17;4.43;;;1.98;;
33104;SDS011;19476;51.448;6.674;2022-08-21T03:37:44;3.58;;;2.10;;
33104;SDS011;19476;51.448;6.674;2022-08-21T03:40:11;4.53;;;1.80;;
33104;SDS011;19476;51.448;6.674;2022-08-21T03:42:38;4.75;;;2.00;;
33104;SDS011;19476;51.448;6.674;2022-08-21T03:45:04;4.22;;;1.90;;
33104;SDS011;19476;51.448;6.674;2022-08-21T03:47:31;2.60;;;1.90;;
33104;SDS011;19476;51.448;6.674;2022-08-21T03:49:56;4.03;;;1.75;;
33104;SDS011;19476;51.448;6.674;2022-08-21T03:52:22;4.13;;;1.98;;
33104;SDS011;19476;51.448;6.674;2022-08-21T03:54:48;4.40;;;1.77;;
33104;SDS011;19476;51.448;6.674;2022-08-21T03:57:15;3.22;;;1.85;;
33104;SDS011;19476;51.448;6.674;2022-08-21T03:59:41;3.38;;;1.85;;
33104;SDS011;19476;51.448;6.674;2022-08-21T04:02:08;3.55;;;1.88;;
33104;SDS011;19476;51.448;6.674;2022-08-21T04:04:36;3.40;;;1.83;;
33104;SDS011;19476;51.448;6.674;2022-08-21T04:07:02;3.55;;;1.67;;
33104;SDS011;19476;51.448;6.674;2022-08-21T04:09:29;4.22;;;1.77;;
33104;SDS011;19476;51.448;6.674;2022-08-21T04:11:55;5.28;;;2.15;;
33104;SDS011;19476;51.448;6.674;2022-08-21T04:14:21;3.55;;;2.00;;
33104;SDS011;19476;51.448;6.674;2022-08-21T04:16:47;4.38;;;2.63;;
33104;SDS011;19476;51.448;6.674;2022-08-21T04:19:14;3.78;;;2.08;;
33104;SDS011;19476;51.448;6.674;2022-08-21T04:21:40;5.15;;;2.25;;
33104;SDS011;19476;51.448;6.674;2022-08-21T04:24:08;2.78;;;2.05;;
33104;SDS011;19476;51.448;6.674;2022-08-21T04:26:35;3.97;;;2.42;;
33104;SDS011;19476;51.448;6.674;2022-08-21T04:29:02;3.33;;;2.15;;
33104;SDS011;19476;51.448;6.674;2022-08-21T04:31:31;4.70;;;2.08;;
33104;SDS011;19476;51.448;6.674;2022-08-21T04:33:58;4.88;;;2.55;;
33104;SDS011;19476;51.448;6.674;2022-08-21T04:36:26;5.60;;;2.72;;
33104;SDS011;19476;51.448;6.674;2022-08-21T04:38:51;5.40;;;2.53;;
33104;SDS011;19476;51.448;6.674;2022-08-21T04:41:17;4.43;;;2.47;;
33104;SDS011;19476;51.448;6.674;2022-08-21T04:43:43;5.53;;;2.72;;
33104;SDS011;19476;51.448;6.674;2022-08-21T04:46:09;5.05;;;2.75;;
33104;SDS011;19476;51.448;6.674;2022-08-21T04:48:35;6.70;;;2.90;;
33104;SDS011;19476;51.448;6.674;2022-08-21T04:51:09;3.65;;;2.40;;
33104;SDS011;19476;51.448;6.674;2022-08-21T04:56:30;5.22;;;2.63;;
33104;SDS011;19476;51.448;6.674;2022-08-21T04:59:03;4.35;;;2.42;;
33104;SDS011;19476;51.448;6.674;2022-08-21T05:01:32;4.65;;;2.83;;
33104;SDS011;19476;51.448;6.674;2022-08-21T05:04:00;4.65;;;2.47;;
33104;SDS011;19476;51.448;6.674;2022-08-21T05:06:31;3.10;;;2.25;;
33104;SDS011;19476;51.448;6.674;2022-08-21T05:09:02;4.57;;;2.42;;
33104;SDS011;19476;51.448;6.674;2022-08-21T05:11:32;6.45;;;2.75;;
33104;SDS011;19476;51.448;6.674;2022-08-21T05:13:58;5.18;;;2.50;;
33104;SDS011;19476;51.448;6.674;2022-08-21T05:16:24;5.78;;;2.88;;
33104;SDS011;19476;51.448;6.674;2022-08-21T05:18:51;4.43;;;2.80;;
33104;SDS011;19476;51.448;6.674;2022-08-21T05:21:17;5.82;;;2.92;;
33104;SDS011;19476;51.448;6.674;2022-08-21T05:23:43;4.45;;;2.60;;
33104;SDS011;19476;51.448;6.674;2022-08-21T05:26:09;4.50;;;2.65;;
33104;SDS011;19476;51.448;6.674;2022-08-21T05:28:34;6.00;;;3.35;;
33104;SDS011;19476;51.448;6.674;2022-08-21T05:31:01;7.18;;;2.95;;
33104;SDS011;19476;51.448;6.674;2022-08-21T05:33:26;5.90;;;3.03;;
33104;SDS011;19476;51.448;6.674;2022-08-21T05:35:53;6.97;;;3.65;;
33104;SDS011;19476;51.448;6.674;2022-08-21T05:38:23;4.55;;;2.83;;
33104;SDS011;19476;51.448;6.674;2022-08-21T05:40:52;4.53;;;3.10;;
33104;SDS011;19476;51.448;6.674;2022-08-21T05:43:18;7.10;;;3.55;;
33104;SDS011;19476;51.448;6.674;2022-08-21T05:45:44;3.95;;;2.85;;
33104;SDS011;19476;51.448;6.674;2022-08-21T05:48:18;5.65;;;3.25;;
33104;SDS011;19476;51.448;6.674;2022-08-21T05:50:47;5.53;;;3.00;;
33104;SDS011;19476;51.448;6.674;2022-08-21T05:53:15;5.10;;;2.42;;
33104;SDS011;19476;51.448;6.674;2022-08-21T05:55:43;5.25;;;2.80;;
33104;SDS011;19476;51.448;6.674;2022-08-21T05:58:09;5.65;;;2.78;;
33104;SDS011;19476;51.448;6.674;2022-08-21T06:00:36;5.80;;;3.08;;
33104;SDS011;19476;51.448;6.674;2022-08-21T06:03:02;5.65;;;2.65;;
33104;SDS011;19476;51.448;6.674;2022-08-21T06:05:29;4.65;;;2.65;;
33104;SDS011;19476;51.448;6.674;2022-08-21T06:07:55;4.60;;;2.20;;
33104;SDS011;19476;51.448;6.674;2022-08-21T06:10:21;3.50;;;1.83;;
33104;SDS011;19476;51.448;6.674;2022-08-21T06:12:52;4.03;;;2.50;;
33104;SDS011;19476;51.448;6.674;2022-08-21T06:15:18;4.18;;;2.50;;
33104;SDS011;19476;51.448;6.674;2022-08-21T06:17:45;3.95;;;2.28;;
33104;SDS011;19476;51.448;6.674;2022-08-21T06:20:10;4.88;;;2.10;;
33104;SDS011;19476;51.448;6.674;2022-08-21T06:22:36;4.43;;;2.45;;
33104;SDS011;19476;51.448;6.674;2022-08-21T06:25:02;5.15;;;2.78;;
33104;SDS011;19476;51.448;6.674;2022-08-21T06:27:28;3.85;;;2.22;;
33104;SDS011;19476;51.448;6.674;2022-08-21T06:29:54;4.32;;;2.40;;
33104;SDS011;19476;51.448;6.674;2022-08-21T06:32:22;5.97;;;2.42;;
33104;SDS011;19476;51.448;6.674;2022-08-21T06:34:48;4.13;;;2.08;;
33104;SDS011;19476;51.448;6.674;2022-08-21T06:37:14;4.57;;;2.03;;
33104;SDS011;19476;51.448;6.674;2022-08-21T06:39:40;3.55;;;1.85;;
33104;SDS011;19476;51.448;6.674;2022-08-21T06:42:05;5.55;;;2.30;;
33104;SDS011;19476;51.448;6.674;2022-08-21T06:44:37;3.33;;;1.77;;
33104;SDS011;19476;51.448;6.674;2022-08-21T06:47:03;6.75;;;2.10;;
33104;SDS011;19476;51.448;6.674;2022-08-21T06:49:29;3.72;;;1.95;;
33104;SDS011;19476;51.448;6.674;2022-08-21T06:51:55;5.63;;;2.20;;
33104;SDS011;19476;51.448;6.674;2022-08-21T06:54:21;3.75;;;1.73;;
33104;SDS011;19476;51.448;6.674;2022-08-21T06:56:46;6.82;;;2.20;;
33104;SDS011;19476;51.448;6.674;2022-08-21T06:59:12;5.47;;;2.15;;
33104;SDS011;19476;51.448;6.674;2022-08-21T07:01:38;4.00;;;1.67;;
33104;SDS011;19476;51.448;6.674;2022-08-21T07:04:04;4.85;;;2.00;;
33104;SDS011;19476;51.448;6.674;2022-08-21T07:06:30;3.13;;;1.80;;
33104;SDS011;19476;51.448;6.674;2022-08-21T07:08:56;4.15;;;1.77;;
33104;SDS011;19476;51.448;6.674;2022-08-21T07:11:22;4.18;;;1.40;;
33104;SDS011;19476;51.448;6.674;2022-08-21T07:13:50;3.67;;;1.70;;
33104;SDS011;19476;51.448;6.674;2022-08-21T07:16:18;4.60;;;1.80;;
33104;SDS011;19476;51.448;6.674;2022-08-21T07:18:45;4.75;;;1.73;;
33104;SDS011;19476;51.448;6.674;2022-08-21T07:21:11;3.72;;;1.50;;
33104;SDS011;19476;51.448;6.674;2022-08-21T07:23:38;4.72;;;1.67;;
33104;SDS011;19476;51.448;6.674;2022-08-21T07:26:06;6.88;;;1.92;;
33104;SDS011;19476;51.448;6.674;2022-08-21T07:28:33;3.55;;;1.60;;
33104;SDS011;19476;51.448;6.674;2022-08-21T07:30:59;3.47;;;1.30;;
33104;SDS011;19476;51.448;6.674;2022-08-21T07:33:26;4.38;;;1.35;;
33104;SDS011;19476;51.448;6.674;2022-08-21T07:35:54;3.50;;;1.42;;
33104;SDS011;19476;51.448;6.674;2022-08-21T07:38:20;3.30;;;1.20;;
33104;SDS011;19476;51.448;6.674;2022-08-21T07:40:47;1.95;;;0.75;;
33104;SDS011;19476;51.448;6.674;2022-08-21T07:43:15;3.33;;;1.25;;
33104;SDS011;19476;51.448;6.674;2022-08-21T07:45:44;4.32;;;1.35;;
33104;SDS011;19476;51.448;6.674;2022-08-21T07:48:11;5.25;;;1.38;;
33104;SDS011;19476;51.448;6.674;2022-08-21T07:50:37;2.47;;;1.10;;
33104;SDS011;19476;51.448;6.674;2022-08-21T07:53:04;4.38;;;1.27;;
33104;SDS011;19476;51.448;6.674;2022-08-21T07:55:30;3.17;;;1.40;;
33104;SDS011;19476;51.448;6.674;2022-08-21T07:57:56;2.97;;;0.82;;
33104;SDS011;19476;51.448;6.674;2022-08-21T08:00:23;1.95;;;0.80;;
33104;SDS011;19476;51.448;6.674;2022-08-21T08:02:50;1.83;;;0.95;;
33104;SDS011;19476;51.448;6.674;2022-08-21T08:05:19;2.30;;;1.05;;
33104;SDS011;19476;51.448;6.674;2022-08-21T08:07:46;5.68;;;1.23;;
33104;SDS011;19476;51.448;6.674;2022-08-21T08:10:12;3.03;;;0.80;;
33104;SDS011;19476;51.448;6.674;2022-08-21T08:12:40;4.78;;;1.08;;
33104;SDS011;19476;51.448;6.674;2022-08-21T08:15:08;3.10;;;1.27;;
33104;SDS011;19476;51.448;6.674;2022-08-21T08:17:36;2.07;;;0.80;;
33104;SDS011;19476;51.448;6.674;2022-08-21T08:20:03;1.95;;;0.70;;
33104;SDS011;19476;51.448;6.674;2022-08-21T08:22:30;2.63;;;0.85;;
33104;SDS011;19476;51.448;6.674;2022-08-21T08:24:56;2.40;;;0.80;;
33104;SDS011;19476;51.448;6.674;2022-08-21T08:27:22;2.00;;;0.80;;
33104;SDS011;19476;51.448;6.674;2022-08-21T08:29:49;2.03;;;0.90;;
33104;SDS011;19476;51.448;6.674;2022-08-21T08:32:15;3.78;;;0.93;;
33104;SDS011;19476;51.448;6.674;2022-08-21T08:34:41;3.55;;;0.98;;
33104;SDS011;19476;51.448;6.674;2022-08-21T08:37:08;2.20;;;0.73;;
33104;SDS011;19476;51.448;6.674;2022-08-21T08:39:35;5.07;;;1.02;;
33104;SDS011;19476;51.448;6.674;2022-08-21T08:42:08;2.63;;;0.93;;
33104;SDS011;19476;51.448;6.674;2022-08-21T08:44:38;3.60;;;0.80;;
33104;SDS011;19476;51.448;6.674;2022-08-21T08:47:09;1.52;;;0.50;;
33104;SDS011;19476;51.448;6.674;2022-08-21T08:49:48;3.72;;;1.10;;
33104;SDS011;19476;51.448;6.674;2022-08-21T08:52:20;2.58;;;0.80;;
33104;SDS011;19476;51.448;6.674;2022-08-21T08:55:02;2.13;;;0.88;;
33104;SDS011;19476;51.448;6.674;2022-08-21T08:57:35;2.88;;;0.65;;
33104;SDS011;19476;51.448;6.674;2022-08-21T09:00:08;6.18;;;1.02;;
33104;SDS011;19476;51.448;6.674;2022-08-21T09:02:38;3.15;;;0.95;;
33104;SDS011;19476;51.448;6.674;2022-08-21T09:05:05;3.97;;;0.82;;
33104;SDS011;19476;51.448;6.674;2022-08-21T09:07:39;1.50;;;0.75;;
33104;SDS011;19476;51.448;6.674;2022-08-21T09:21:11;2.55;;;0.80;;
33104;SDS011;19476;51.448;6.674;2022-08-21T09:23:52;3.08;;;0.88;;
33104;SDS011;19476;51.448;6.674;2022-08-21T09:29:14;3.55;;;0.80;;
33104;SDS011;19476;51.448;6.674;2022-08-21T09:31:45;3.05;;;0.57;;
33104;SDS011;19476;51.448;6.674;2022-08-21T09:34:11;2.13;;;0.70;;
33104;SDS011;19476;51.448;6.674;2022-08-21T09:36:40;3.65;;;1.02;;
33104;SDS011;19476;51.448;6.674;2022-08-21T09:39:12;3.53;;;0.80;;
33104;SDS011;19476;51.448;6.674;2022-08-21T09:41:39;2.97;;;0.80;;
33104;SDS011;19476;51.448;6.674;2022-08-21T09:44:06;2.55;;;0.80;;
33104;SDS011;19476;51.448;6.674;2022-08-21T09:46:33;2.65;;;1.00;;
33104;SDS011;19476;51.448;6.674;2022-08-21T09:49:01;3.58;;;0.90;;
33104;SDS011;19476;51.448;6.674;2022-08-21T09:51:29;2.63;;;0.75;;
33104;SDS011;19476;51.448;6.674;2022-08-21T09:56:55;1.77;;;0.90;;
33104;SDS011;19476;51.448;6.674;2022-08-21T09:59:37;2.65;;;0.95;;
33104;SDS011;19476;51.448;6.674;2022-08-21T10:05:00;2.75;;;0.60;;
33104;SDS011;19476;51.448;6.674;2022-08-21T10:07:29;1.52;;;0.70;;
33104;SDS011;19476;51.448;6.674;2022-08-21T10:10:08;7.00;;;0.90;;
33104;SDS011;19476;51.448;6.674;2022-08-21T10:12:45;2.38;;;0.88;;
33104;SDS011;19476;51.448;6.674;2022-08-21T10:23:39;2.17;;;0.60;;
33104;SDS011;19476;51.448;6.674;2022-08-21T10:35:02;2.15;;;0.68;;
33104;SDS011;19476;51.448;6.674;2022-08-21T10:37:50;2.75;;;0.90;;
33104;SDS011;19476;51.448;6.674;2022-08-21T10:43:34;2.78;;;0.70;;
33104;SDS011;19476;51.448;6.674;2022-08-21T10:51:27;1.75;;;0.70;;
33104;SDS011;19476;51.448;6.674;2022-08-21T10:54:13;1.40;;;0.70;;
33104;SDS011;19476;51.448;6.674;2022-08-21T10:56:53;1.27;;;0.50;;
33104;SDS011;19476;51.448;6.674;2022-08-21T10:59:38;0.95;;;0.50;;
33104;SDS011;19476;51.448;6.674;2022-08-21T11:04:56;1.48;;;0.47;;
33104;SDS011;19476;51.448;6.674;2022-08-21T11:07:36;1.60;;;0.50;;
33104;SDS011;19476;51.448;6.674;2022-08-21T11:10:10;1.48;;;0.55;;
33104;SDS011;19476;51.448;6.674;2022-08-21T11:12:48;1.13;;;0.50;;
33104;SDS011;19476;51.448;6.674;2022-08-21T11:18:27;1.50;;;0.60;;
33104;SDS011;19476;51.448;6.674;2022-08-21T11:29:39;2.40;;;0.70;;
33104;SDS011;19476;51.448;6.674;2022-08-21T11:35:19;0.70;;;0.40;;
33104;SDS011;19476;51.448;6.674;2022-08-21T11:40:49;0.93;;;0.35;;
33104;SDS011;19476;51.448;6.674;2022-08-21T11:46:08;2.30;;;0.63;;
33104;SDS011;19476;51.448;6.674;2022-08-21T11:51:38;1.42;;;0.55;;
33104;SDS011;19476;51.448;6.674;2022-08-21T11:54:23;2.75;;;0.50;;
33104;SDS011;19476;51.448;6.674;2022-08-21T11:57:00;1.08;;;0.55;;
33104;SDS011;19476;51.448;6.674;2022-08-21T11:59:37;1.45;;;0.40;;
33104;SDS011;19476;51.448;6.674;2022-08-21T12:02:14;1.60;;;0.52;;
33104;SDS011;19476;51.448;6.674;2022-08-21T12:04:56;1.48;;;0.52;;
33104;SDS011;19476;51.448;6.674;2022-08-21T12:07:29;0.70;;;0.40;;
33104;SDS011;19476;51.448;6.674;2022-08-21T12:10:01;2.65;;;0.80;;
33104;SDS011;19476;51.448;6.674;2022-08-21T12:12:33;1.20;;;0.77;;
33104;SDS011;19476;51.448;6.674;2022-08-21T12:15:07;3.35;;;0.68;;
33104;SDS011;19476;51.448;6.674;2022-08-21T12:17:56;1.30;;;0.60;;
33104;SDS011;19476;51.448;6.674;2022-08-21T12:20:36;3.53;;;0.80;;
33104;SDS011;19476;51.448;6.674;2022-08-21T12:23:15;0.70;;;0.50;;
33104;SDS011;19476;51.448;6.674;2022-08-21T12:26:01;1.52;;;0.80;;
33104;SDS011;19476;51.448;6.674;2022-08-21T12:28:39;3.63;;;0.63;;
33104;SDS011;19476;51.448;6.674;2022-08-21T12:31:16;1.20;;;0.52;;
33104;SDS011;19476;51.448;6.674;2022-08-21T12:33:47;2.50;;;0.75;;
33104;SDS011;19476;51.448;6.674;2022-08-21T12:36:24;1.05;;;0.43;;
33104;SDS011;19476;51.448;6.674;2022-08-21T12:39:04;2.45;;;0.65;;
33104;SDS011;19476;51.448;6.674;2022-08-21T12:41:41;1.15;;;0.50;;
33104;SDS011;19476;51.448;6.674;2022-08-21T12:44:15;1.80;;;0.80;;
33104;SDS011;19476;51.448;6.674;2022-08-21T12:47:03;1.38;;;0.50;;
33104;SDS011;19476;51.448;6.674;2022-08-21T12:53:20;3.75;;;1.05;;
33104;SDS011;19476;51.448;6.674;2022-08-21T12:55:41;2.17;;;0.63;;
33104;SDS011;19476;51.448;6.674;2022-08-21T12:58:22;0.98;;;0.57;;
33104;SDS011;19476;51.448;6.674;2022-08-21T13:00:55;1.67;;;0.77;;
33104;SDS011;19476;51.448;6.674;2022-08-21T13:03:26;1.73;;;0.63;;
33104;SDS011;19476;51.448;6.674;2022-08-21T13:05:53;2.45;;;0.80;;
33104;SDS011;19476;51.448;6.674;2022-08-21T13:08:20;2.72;;;0.77;;
33104;SDS011;19476;51.448;6.674;2022-08-21T13:10:49;0.83;;;0.60;;
33104;SDS011;19476;51.448;6.674;2022-08-21T13:13:26;2.47;;;0.88;;
33104;SDS011;19476;51.448;6.674;2022-08-21T13:15:57;1.77;;;0.60;;
33104;SDS011;19476;51.448;6.674;2022-08-21T13:18:34;2.67;;;0.70;;
33104;SDS011;19476;51.448;6.674;2022-08-21T13:21:06;1.45;;;0.77;;
33104;SDS011;19476;51.448;6.674;2022-08-21T13:23:35;2.03;;;0.70;;
33104;SDS011;19476;51.448;6.674;2022-08-21T13:26:01;2.65;;;0.63;;
33104;SDS011;19476;51.448;6.674;2022-08-21T13:28:41;0.95;;;0.50;;
33104;SDS011;19476;51.448;6.674;2022-08-21T13:31:09;2.90;;;0.77;;
33104;SDS011;19476;51.448;6.674;2022-08-21T13:33:36;2.63;;;0.82;;
33104;SDS011;19476;51.448;6.674;2022-08-21T13:36:14;3.50;;;0.80;;
33104;SDS011;19476;51.448;6.674;2022-08-21T13:38:46;3.42;;;0.88;;
33104;SDS011;19476;51.448;6.674;2022-08-21T13:43:43;2.25;;;0.63;;
33104;SDS011;19476;51.448;6.674;2022-08-21T13:46:11;2.25;;;0.80;;
33104;SDS011;19476;51.448;6.674;2022-08-21T13:48:39;2.80;;;0.90;;
33104;SDS011;19476;51.448;6.674;2022-08-21T13:51:07;2.38;;;0.80;;
33104;SDS011;19476;51.448;6.674;2022-08-21T13:53:36;2.80;;;0.88;;
33104;SDS011;19476;51.448;6.674;2022-08-21T13:56:31;2.25;;;0.82;;
33104;SDS011;19476;51.448;6.674;2022-08-21T13:59:09;2.95;;;0.85;;
33104;SDS011;19476;51.448;6.674;2022-08-21T14:01:37;1.80;;;0.80;;
33104;SDS011;19476;51.448;6.674;2022-08-21T14:04:21;1.92;;;0.57;;
33104;SDS011;19476;51.448;6.674;2022-08-21T14:06:49;1.90;;;0.60;;
33104;SDS011;19476;51.448;6.674;2022-08-21T14:09:26;1.85;;;0.82;;
33104;SDS011;19476;51.448;6.674;2022-08-21T14:12:02;2.88;;;0.90;;
33104;SDS011;19476;51.448;6.674;2022-08-21T14:14:41;1.67;;;0.60;;
33104;SDS011;19476;51.448;6.674;2022-08-21T14:17:13;4.20;;;0.70;;
33104;SDS011;19476;51.448;6.674;2022-08-21T14:19:51;1.63;;;0.68;;
33104;SDS011;19476;51.448;6.674;2022-08-21T14:25:08;1.10;;;0.57;;
33104;SDS011;19476;51.448;6.674;2022-08-21T14:28:26;1.45;;;0.70;;
33104;SDS011;19476;51.448;6.674;2022-08-21T14:30:34;1.58;;;0.73;;
33104;SDS011;19476;51.448;6.674;2022-08-21T14:33:08;1.15;;;0.60;;
33104;SDS011;19476;51.448;6.674;2022-08-21T14:35:37;1.80;;;0.80;;
33104;SDS011;19476;51.448;6.674;2022-08-21T14:38:10;2.45;;;0.60;;
33104;SDS011;19476;51.448;6.674;2022-08-21T14:40:40;3.63;;;1.00;;
33104;SDS011;19476;51.448;6.674;2022-08-21T14:43:08;1.90;;;0.80;;
33104;SDS011;19476;51.448;6.674;2022-08-21T14:45:34;2.47;;;1.30;;
33104;SDS011;19476;51.448;6.674;2022-08-21T14:48:02;1.73;;;0.70;;
33104;SDS011;19476;51.448;6.674;2022-08-21T14:50:28;2.92;;;0.88;;
33104;SDS011;19476;51.448;6.674;2022-08-21T14:52:54;7.25;;;1.15;;
33104;SDS011;19476;51.448;6.674;2022-08-21T14:55:20;1.50;;;0.55;;
33104;SDS011;19476;51.448;6.674;2022-08-21T14:57:50;2.55;;;0.80;;
33104;SDS011;19476;51.448;6.674;2022-08-21T15:00:18;2.58;;;0.95;;
33104;SDS011;19476;51.448;6.674;2022-08-21T15:02:48;1.52;;;0.50;;
33104;SDS011;19476;51.448;6.674;2022-08-21T15:05:14;2.72;;;1.00;;
33104;SDS011;19476;51.448;6.674;2022-08-21T15:07:41;4.03;;;1.08;;
33104;SDS011;19476;51.448;6.674;2022-08-21T15:10:08;2.58;;;0.80;;
33104;SDS011;19476;51.448;6.674;2022-08-21T15:12:34;2.80;;;0.90;;
33104;SDS011;19476;51.448;6.674;2022-08-21T15:15:00;1.98;;;0.80;;
33104;SDS011;19476;51.448;6.674;2022-08-21T15:17:26;2.45;;;0.98;;
33104;SDS011;19476;51.448;6.674;2022-08-21T15:19:52;4.78;;;1.00;;
33104;SDS011;19476;51.448;6.674;2022-08-21T15:22:18;2.38;;;0.85;;
33104;SDS011;19476;51.448;6.674;2022-08-21T15:24:44;2.35;;;0.90;;
33104;SDS011;19476;51.448;6.674;2022-08-21T15:27:10;2.83;;;0.82;;
33104;SDS011;19476;51.448;6.674;2022-08-21T15:29:38;1.33;;;0.70;;
33104;SDS011;19476;51.448;6.674;2022-08-21T15:32:24;1.80;;;0.90;;
33104;SDS011;19476;51.448;6.674;2022-08-21T15:34:53;2.20;;;0.90;;
33104;SDS011;19476;51.448;6.674;2022-08-21T15:37:20;2.55;;;0.80;;
33104;SDS011;19476;51.448;6.674;2022-08-21T15:39:47;1.45;;;0.70;;
33104;SDS011;19476;51.448;6.674;2022-08-21T15:42:17;3.28;;;1.00;;
33104;SDS011;19476;51.448;6.674;2022-08-21T15:44:44;2.17;;;0.68;;
33104;SDS011;19476;51.448;6.674;2022-08-21T15:47:12;3.80;;;0.88;;
33104;SDS011;19476;51.448;6.674;2022-08-21T15:49:41;2.42;;;0.80;;
33104;SDS011;19476;51.448;6.674;2022-08-21T15:52:10;2.78;;;1.02;;
33104;SDS011;19476;51.448;6.674;2022-08-21T15:54:40;1.13;;;0.60;;
33104;SDS011;19476;51.448;6.674;2022-08-21T15:57:07;1.23;;;0.85;;
33104;SDS011;19476;51.448;6.674;2022-08-21T15:59:45;2.22;;;0.82;;
33104;SDS011;19476;51.448;6.674;2022-08-21T16:02:21;1.60;;;0.70;;
33104;SDS011;19476;51.448;6.674;2022-08-21T16:04:49;1.95;;;0.80;;
33104;SDS011;19476;51.448;6.674;2022-08-21T16:07:15;1.58;;;0.80;;
33104;SDS011;19476;51.448;6.674;2022-08-21T16:09:41;1.80;;;0.82;;
33104;SDS011;19476;51.448;6.674;2022-08-21T16:12:07;2.45;;;0.73;;
33104;SDS011;19476;51.448;6.674;2022-08-21T16:14:37;1.42;;;0.80;;
33104;SDS011;19476;51.448;6.674;2022-08-21T16:17:04;1.67;;;0.93;;
33104;SDS011;19476;51.448;6.674;2022-08-21T16:19:31;1.60;;;0.80;;
33104;SDS011;19476;51.448;6.674;2022-08-21T16:21:57;2.85;;;1.08;;
33104;SDS011;19476;51.448;6.674;2022-08-21T16:24:23;1.20;;;0.70;;